Terminal Aerodrome Forecast
Issued by NWS

Home | Current Version | Previous Version | Graphics & Text | Print | Product List | Glossary On
Versions: 1 2 3 4 5 6 7 8 9 10 11 12 13 14 15 16 17 18
000
FTUS43 KABR 181732
TAFPIR
TAF
KPIR 181732Z 1818/1918 33013KT P6SM VCSH OVC005
     FM182000 33013KT P6SM BKN008
     FM182200 34011KT P6SM OVC045
     FM190900 00000KT 1 1/2SM BR FEW150
      TEMPO 1910/1914 1SM BR FEW008
     FM191400 15004KT P6SM FEW025 FEW150=

USA.gov is the U.S. government's official web portal to all federal, state and local government web resources and services.